Terminal Aerodrome Forecast
Issued by NWS

Home | Current Version | Previous Version | Text Only | Print | Product List | Glossary On
Versions: 1 2 3 4 5 6 7 8 9 10 11 12 13 14 15 16 17 18 19 20 21 22
000
FTUS42 KRAH 302339
TAFINT
TAF
KINT 302339Z 3100/3124 VRB04KT P6SM BKN040 OVC050
      TEMPO 3100/3104 5SM -SHRA BKN015 OVC035
     FM310400 VRB05KT 5SM -SHRA BR OVC012
     FM310600 17011G17KT 3SM SHRA BR BKN006 OVC012
      TEMPO 3107/3110 VRB15G25KT 2SM +TSRA BR SCT008 OVC025CB
     FM311300 23012G24KT P6SM BKN040
      TEMPO 3113/3116 BKN015
     FM311700 25018G28KT P6SM BKN050=

USA.gov is the U.S. government's official web portal to all federal, state and local government web resources and services.